首页
METAR-TAF:

METAR-TAF

机场 :

廊曼国际机场

曼谷, 泰国

纬度: 13-54-45N, 经度: 100-36-24E, 海拔: 4米

当前天气观测

该预报发布于20分钟前的08:30 UTC
风速11节,风向,在东南南转西南之间变化
温度 36°C
湿度 47%
气压 1008 hPa
能见度10公里或以上
少量云层高于2000英尺

METAR: VTBD 030830Z 18011KT 140V210 9999 FEW020 36/23 Q1008 NOSIG

时间: 15:50 (08:50 UTC)

预报

该预报发布于3小时和50分钟前的05:00 UTC
预报有效从03日的 06点(UTC)到 04日的 12点(UTC)
风速10节,风向
能见度10公里或以上
少量云层高于2000英尺
成为
从 03日的 22点(UTC)到 03日的 24点(UTC)
风速5节,风向东转东南
成为
从 04日的 02点(UTC)到 04日的 04点(UTC)
风速10节,风向

TAF: VTBD 030500Z 0306/0412 19010KT 9999 FEW020 BECMG 0322/0324 12005KT BECMG 0402/0404 19010KT

超过4000个机场的气象观测和天气预报(METAR&TAF报告)。

可查询的气象台以黄色和红色小点在地图上表示。

将鼠标移到小点上方,可查看气象台名称。

然后点击查看天气观测和预报。

如需切换地图:点击带黑十字的绿色按钮放大地图;点击带横线的绿色按钮缩小地图;或者点击绿色箭头查看邻近地区的地图。


METAR-TAF: